Terminal Aerodrome Forecast
Issued by NWS

Home | Current Version | Previous Version | Text Only | Print | Product List | Glossary On
Versions: 1 2 3 4 5 6 7 8 9 10 11 12 13 14
000
FTUS46 KPDT 240500
TAFALW
TAF
KALW 240520Z 2406/2506 18005KT P6SM FEW060 SCT080 OVC120
     FM241600 06004KT P6SM BKN080 OVC100
     FM242100 01005KT P6SM -SHRA BKN060 OVC080
     FM250200 07006KT P6SM -SHRA OVC050=

USA.gov is the U.S. government's official web portal to all federal, state and local government web resources and services.